Time,TemperatureF,DewpointF,PressureIn,WindDirection,WindDirectionDegrees,WindSpeedMPH,WindSpeedGustMPH,Humidity,HourlyPrecipIn,Conditions,Clouds,dailyrainin,SoftwareType,DateUTC
2013-02-02 00:29:00,26.2,20.9,30.14,WSW,252,0.0,0.0,80,0.00,,---,0.00,VWS V14.01,2013-02-02 06:29:00,
2013-02-02 00:59:00,26.3,21.6,30.13,WSW,252,0.0,0.0,82,0.00,,---,0.00,VWS V14.01,2013-02-02 06:59:00,
2013-02-02 01:29:00,25.6,21.5,30.14,WSW,250,0.0,0.0,84,0.00,,---,0.00,VWS V14.01,2013-02-02 07:29:00,
2013-02-02 01:59:00,25.2,21.3,30.14,WSW,251,0.0,0.0,85,0.00,,---,0.00,VWS V14.01,2013-02-02 07:59:00,
2013-02-02 02:29:00,24.2,20.9,30.15,WSW,251,0.0,0.0,87,0.00,,---,0.00,VWS V14.01,2013-02-02 08:29:00,
2013-02-02 02:59:00,25.8,22.7,30.17,WSW,251,0.0,0.0,88,0.00,,---,0.00,VWS V14.01,2013-02-02 08:59:00,
2013-02-02 03:29:00,28.1,23.9,30.17,WNW,287,0.0,0.0,84,0.00,,---,0.00,VWS V14.01,2013-02-02 09:29:00,
2013-02-02 03:59:00,27.5,23.3,30.17,WNW,287,0.0,0.0,84,0.00,,---,0.00,VWS V14.01,2013-02-02 09:59:00,
2013-02-02 04:29:00,27.6,23.4,30.17,WNW,294,0.0,0.0,84,0.00,,---,0.00,VWS V14.01,2013-02-02 10:29:00,
2013-02-02 04:59:00,27.6,22.5,30.17,WNW,295,0.0,0.0,81,0.00,,---,0.00,VWS V14.01,2013-02-02 10:59:00,
2013-02-02 05:29:00,27.5,22.5,30.18,WNW,294,0.0,0.0,81,0.00,,---,0.00,VWS V14.01,2013-02-02 11:29:00,
2013-02-02 05:59:00,27.3,21.7,30.18,WNW,299,0.0,0.0,79,0.00,,---,0.00,VWS V14.01,2013-02-02 11:59:00,
2013-02-02 06:29:00,26.8,21.5,30.19,WNW,300,0.0,0.0,80,0.00,,---,0.00,VWS V14.01,2013-02-02 12:29:00,
2013-02-02 06:59:00,26.3,21.6,30.20,NNE,18,0.0,0.0,82,0.00,,---,0.00,VWS V14.01,2013-02-02 12:59:00,
2013-02-02 07:29:00,25.8,21.1,30.21,NNE,15,0.0,0.0,82,0.00,,---,0.00,VWS V14.01,2013-02-02 13:29:00,
2013-02-02 07:59:00,25.5,20.5,30.22,NW,320,0.0,0.0,81,0.00,,---,0.00,VWS V14.01,2013-02-02 13:59:00,
2013-02-02 08:29:00,25.5,20.2,30.22,WNW,303,0.0,0.0,80,0.00,,---,0.00,VWS V14.01,2013-02-02 14:29:00,
2013-02-02 08:59:00,25.7,20.4,30.24,NW,306,0.0,0.0,80,0.00,,---,0.00,VWS V14.01,2013-02-02 14:59:00,
2013-02-02 09:29:00,26.2,20.9,30.24,NW,306,0.0,0.0,80,0.00,,---,0.00,VWS V14.01,2013-02-02 15:29:00,
2013-02-02 09:59:00,26.3,20.1,30.23,NNE,15,0.0,0.0,77,0.00,,---,0.00,VWS V14.01,2013-02-02 15:59:00,
2013-02-02 10:29:00,27.1,20.5,30.24,NNE,15,0.0,0.0,76,0.00,,---,0.00,VWS V14.01,2013-02-02 16:29:00,
2013-02-02 10:59:00,27.6,20.7,30.23,NNE,15,0.0,0.0,75,0.00,,---,0.00,VWS V14.01,2013-02-02 16:59:00,
2013-02-02 11:29:00,28.6,21.4,30.23,NNE,15,0.0,0.0,74,0.00,,---,0.00,VWS V14.01,2013-02-02 17:29:00,
2013-02-02 11:59:00,28.1,20.9,30.22,NNE,15,0.0,0.0,74,0.00,,---,0.00,VWS V14.01,2013-02-02 17:59:00,
2013-02-02 12:59:00,28.8,21.9,30.19,ESE,111,0.0,0.0,75,0.00,,---,0.00,VWS V14.01,2013-02-02 18:59:00,
2013-02-02 13:29:00,28.8,23.4,30.17,SSE,166,0.0,0.0,80,0.00,,---,0.00,VWS V14.01,2013-02-02 19:29:00,
2013-02-02 13:59:00,29.5,24.1,30.18,SSW,199,0.0,0.0,80,0.01,,---,0.01,VWS V14.01,2013-02-02 19:59:00,
2013-02-02 14:29:00,31.0,25.6,30.16,SSE,159,0.0,0.0,80,0.01,,---,0.01,VWS V14.01,2013-02-02 20:29:00,
2013-02-02 14:59:00,32.8,27.6,30.14,SSE,163,0.0,0.0,81,0.01,,---,0.01,VWS V14.01,2013-02-02 20:59:00,
2013-02-02 15:29:00,32.9,27.7,30.12,SSE,153,0.0,0.0,81,0.00,,---,0.01,VWS V14.01,2013-02-02 21:29:00,
2013-02-02 15:59:00,33.6,28.1,30.10,South,180,0.0,0.0,80,0.00,,---,0.01,VWS V14.01,2013-02-02 21:59:00,
2013-02-02 16:29:00,33.3,28.1,30.09,SSE,163,0.0,0.0,81,0.00,,---,0.01,VWS V14.01,2013-02-02 22:29:00,
2013-02-02 16:59:00,33.2,28.3,30.08,SSE,154,0.0,0.0,82,0.00,,---,0.01,VWS V14.01,2013-02-02 22:59:00,
2013-02-02 17:29:00,33.0,28.7,30.08,SSE,159,0.0,0.0,84,0.00,,---,0.01,VWS V14.01,2013-02-02 23:29:00,
2013-02-02 17:59:00,32.8,28.8,30.07,SSE,159,0.0,0.0,85,0.00,,---,0.01,VWS V14.01,2013-02-02 23:59:00,
2013-02-02 18:29:00,32.6,28.6,30.08,SSE,159,0.0,0.0,85,0.00,,---,0.01,VWS V14.01,2013-02-03 00:29:00,
2013-02-02 18:59:00,32.9,29.5,30.11,NNE,22,0.0,0.0,87,0.00,,---,0.01,VWS V14.01,2013-02-03 00:59:00,
2013-02-02 19:29:00,32.4,29.5,30.10,NNE,22,0.0,0.0,89,0.00,,---,0.01,VWS V14.01,2013-02-03 01:29:00,
2013-02-02 19:59:00,35.4,31.9,30.11,WNW,292,0.0,0.0,87,0.00,,---,0.01,VWS V14.01,2013-02-03 01:59:00,
2013-02-02 20:29:00,36.5,31.8,30.10,WNW,293,0.0,0.0,83,0.00,,---,0.01,VWS V14.01,2013-02-03 02:29:00,
2013-02-02 20:59:00,37.6,31.7,30.10,WNW,288,0.0,0.0,79,0.00,,---,0.01,VWS V14.01,2013-02-03 02:59:00,
2013-02-02 21:29:00,38.5,31.0,30.10,WNW,288,0.0,0.0,74,0.01,,---,0.02,VWS V14.01,2013-02-03 03:29:00,
2013-02-02 21:59:00,39.3,30.7,30.11,WNW,294,0.0,0.0,71,0.01,,---,0.02,VWS V14.01,2013-02-03 03:59:00,
2013-02-02 22:29:00,38.7,30.1,30.11,West,272,0.0,0.0,71,0.01,,---,0.02,VWS V14.01,2013-02-03 04:29:00,
2013-02-02 22:59:00,36.1,30.2,30.12,WSW,257,0.0,0.0,79,0.00,,---,0.02,VWS V14.01,2013-02-03 04:59:00,
2013-02-02 23:29:00,37.2,29.7,30.14,WNW,302,0.0,0.0,74,0.00,,---,0.02,VWS V14.01,2013-02-03 05:29:00,
2013-02-02 23:59:00,36.9,28.4,30.16,WNW,288,0.0,0.0,71,0.00,,---,0.00,VWS V14.01,2013-02-03 05:59:00,